sensor_id;sensor_type;location;lat;lon;timestamp;temperature;humidity
21678;DHT22;11000;50.360;7.582;2023-02-01T00:00:07;6.00;99.90
21678;DHT22;11000;50.360;7.582;2023-02-01T00:02:27;6.00;99.90
21678;DHT22;11000;50.360;7.582;2023-02-01T00:04:48;6.00;99.90
21678;DHT22;11000;50.360;7.582;2023-02-01T00:07:09;6.00;99.90
21678;DHT22;11000;50.360;7.582;2023-02-01T00:09:29;6.00;99.90
21678;DHT22;11000;50.360;7.582;2023-02-01T00:11:50;6.00;99.90
21678;DHT22;11000;50.360;7.582;2023-02-01T00:14:11;6.00;99.90
21678;DHT22;11000;50.360;7.582;2023-02-01T00:16:32;6.10;99.90
21678;DHT22;11000;50.360;7.582;2023-02-01T00:18:57;6.10;99.90
21678;DHT22;11000;50.360;7.582;2023-02-01T00:21:20;6.10;99.90
21678;DHT22;11000;50.360;7.582;2023-02-01T00:23:41;6.10;99.90
21678;DHT22;11000;50.360;7.582;2023-02-01T00:26:03;6.10;99.90
21678;DHT22;11000;50.360;7.582;2023-02-01T00:28:24;6.10;99.90
21678;DHT22;11000;50.360;7.582;2023-02-01T00:30:45;6.20;99.90
21678;DHT22;11000;50.360;7.582;2023-02-01T00:33:05;6.20;99.90
21678;DHT22;11000;50.360;7.582;2023-02-01T00:35:26;6.20;99.90
21678;DHT22;11000;50.360;7.582;2023-02-01T00:37:46;6.20;99.90
21678;DHT22;11000;50.360;7.582;2023-02-01T00:40:07;6.20;99.90
21678;DHT22;11000;50.360;7.582;2023-02-01T00:42:28;6.20;99.90
21678;DHT22;11000;50.360;7.582;2023-02-01T00:44:49;6.20;99.90
21678;DHT22;11000;50.360;7.582;2023-02-01T00:47:09;6.20;99.90
21678;DHT22;11000;50.360;7.582;2023-02-01T00:49:30;6.30;99.90
21678;DHT22;11000;50.360;7.582;2023-02-01T00:51:50;6.30;99.90
21678;DHT22;11000;50.360;7.582;2023-02-01T00:54:11;6.30;99.90
21678;DHT22;11000;50.360;7.582;2023-02-01T00:56:31;6.30;99.90
21678;DHT22;11000;50.360;7.582;2023-02-01T00:58:52;6.30;99.90
21678;DHT22;11000;50.360;7.582;2023-02-01T01:01:20;6.30;99.90
21678;DHT22;11000;50.360;7.582;2023-02-01T01:03:43;6.30;99.90
21678;DHT22;11000;50.360;7.582;2023-02-01T01:06:06;6.30;99.90
21678;DHT22;11000;50.360;7.582;2023-02-01T01:08:27;6.40;99.90
21678;DHT22;11000;50.360;7.582;2023-02-01T01:10:48;6.40;99.90
21678;DHT22;11000;50.360;7.582;2023-02-01T01:13:09;6.40;99.90
21678;DHT22;11000;50.360;7.582;2023-02-01T01:15:30;6.40;99.90
21678;DHT22;11000;50.360;7.582;2023-02-01T01:17:50;6.40;99.90
21678;DHT22;11000;50.360;7.582;2023-02-01T01:20:11;6.40;99.90
21678;DHT22;11000;50.360;7.582;2023-02-01T01:22:32;6.40;99.90
21678;DHT22;11000;50.360;7.582;2023-02-01T01:24:52;6.40;99.90
21678;DHT22;11000;50.360;7.582;2023-02-01T01:27:13;6.40;99.90
21678;DHT22;11000;50.360;7.582;2023-02-01T01:29:34;6.40;99.90
21678;DHT22;11000;50.360;7.582;2023-02-01T01:31:54;6.40;99.90
21678;DHT22;11000;50.360;7.582;2023-02-01T01:34:15;6.40;99.90
21678;DHT22;11000;50.360;7.582;2023-02-01T01:36:35;6.40;99.90
21678;DHT22;11000;50.360;7.582;2023-02-01T01:38:56;6.40;99.90
21678;DHT22;11000;50.360;7.582;2023-02-01T01:41:22;6.40;99.90
21678;DHT22;11000;50.360;7.582;2023-02-01T01:43:57;6.40;99.90
21678;DHT22;11000;50.360;7.582;2023-02-01T01:46:20;6.40;99.90
21678;DHT22;11000;50.360;7.582;2023-02-01T01:48:41;6.50;99.90
21678;DHT22;11000;50.360;7.582;2023-02-01T01:51:08;6.50;99.90
21678;DHT22;11000;50.360;7.582;2023-02-01T01:53:34;6.50;99.90
21678;DHT22;11000;50.360;7.582;2023-02-01T01:55:55;6.40;99.90
21678;DHT22;11000;50.360;7.582;2023-02-01T01:58:19;6.40;99.90
21678;DHT22;11000;50.360;7.582;2023-02-01T02:00:41;6.40;99.90
21678;DHT22;11000;50.360;7.582;2023-02-01T02:03:32;6.40;99.90
21678;DHT22;11000;50.360;7.582;2023-02-01T02:05:55;6.40;99.90
21678;DHT22;11000;50.360;7.582;2023-02-01T02:08:18;6.40;99.90
21678;DHT22;11000;50.360;7.582;2023-02-01T02:10:40;6.40;99.90
21678;DHT22;11000;50.360;7.582;2023-02-01T02:13:19;6.40;99.90
21678;DHT22;11000;50.360;7.582;2023-02-01T02:15:45;6.40;99.90
21678;DHT22;11000;50.360;7.582;2023-02-01T02:18:17;6.40;99.90
21678;DHT22;11000;50.360;7.582;2023-02-01T02:26:23;6.40;99.90
21678;DHT22;11000;50.360;7.582;2023-02-01T02:35:11;6.40;99.90
21678;DHT22;11000;50.360;7.582;2023-02-01T02:37:59;6.40;99.90
21678;DHT22;11000;50.360;7.582;2023-02-01T02:40:32;6.40;99.90
21678;DHT22;11000;50.360;7.582;2023-02-01T02:43:09;6.40;99.90
21678;DHT22;11000;50.360;7.582;2023-02-01T02:45:55;6.40;99.90
21678;DHT22;11000;50.360;7.582;2023-02-01T02:48:55;6.40;99.90
21678;DHT22;11000;50.360;7.582;2023-02-01T02:51:25;6.40;99.90
21678;DHT22;11000;50.360;7.582;2023-02-01T02:54:13;6.40;99.90
21678;DHT22;11000;50.360;7.582;2023-02-01T02:56:53;6.40;99.90
21678;DHT22;11000;50.360;7.582;2023-02-01T02:59:34;6.40;99.90
21678;DHT22;11000;50.360;7.582;2023-02-01T03:02:15;6.40;99.90
21678;DHT22;11000;50.360;7.582;2023-02-01T03:04:55;6.40;99.90
21678;DHT22;11000;50.360;7.582;2023-02-01T03:07:53;6.40;99.90
21678;DHT22;11000;50.360;7.582;2023-02-01T03:12:44;6.40;99.90
21678;DHT22;11000;50.360;7.582;2023-02-01T03:15:18;6.40;99.90
21678;DHT22;11000;50.360;7.582;2023-02-01T03:17:40;6.40;99.90
21678;DHT22;11000;50.360;7.582;2023-02-01T03:20:03;6.40;99.90
21678;DHT22;11000;50.360;7.582;2023-02-01T03:22:27;6.30;99.90
21678;DHT22;11000;50.360;7.582;2023-02-01T03:24:54;6.40;99.90
21678;DHT22;11000;50.360;7.582;2023-02-01T03:27:48;6.40;99.90
21678;DHT22;11000;50.360;7.582;2023-02-01T03:30:19;6.30;99.90
21678;DHT22;11000;50.360;7.582;2023-02-01T03:32:42;6.40;99.90
21678;DHT22;11000;50.360;7.582;2023-02-01T03:37:46;6.40;99.90
21678;DHT22;11000;50.360;7.582;2023-02-01T03:40:10;6.30;99.90
21678;DHT22;11000;50.360;7.582;2023-02-01T03:42:37;6.40;99.90
21678;DHT22;11000;50.360;7.582;2023-02-01T03:47:34;6.30;99.90
21678;DHT22;11000;50.360;7.582;2023-02-01T03:50:04;6.40;99.90
21678;DHT22;11000;50.360;7.582;2023-02-01T03:52:42;6.30;99.90
21678;DHT22;11000;50.360;7.582;2023-02-01T03:55:05;6.40;99.90
21678;DHT22;11000;50.360;7.582;2023-02-01T03:57:31;6.40;99.90
21678;DHT22;11000;50.360;7.582;2023-02-01T03:59:53;6.40;99.90
21678;DHT22;11000;50.360;7.582;2023-02-01T04:02:13;6.40;99.90
21678;DHT22;11000;50.360;7.582;2023-02-01T04:04:34;6.40;99.90
21678;DHT22;11000;50.360;7.582;2023-02-01T04:06:55;6.40;99.90
21678;DHT22;11000;50.360;7.582;2023-02-01T04:09:16;6.40;99.90
21678;DHT22;11000;50.360;7.582;2023-02-01T04:11:37;6.40;99.90
21678;DHT22;11000;50.360;7.582;2023-02-01T04:13:58;6.40;99.90
21678;DHT22;11000;50.360;7.582;2023-02-01T04:16:18;6.40;99.90
21678;DHT22;11000;50.360;7.582;2023-02-01T04:18:39;6.40;99.90
21678;DHT22;11000;50.360;7.582;2023-02-01T04:20:59;6.40;99.90
21678;DHT22;11000;50.360;7.582;2023-02-01T04:23:21;6.40;99.90
21678;DHT22;11000;50.360;7.582;2023-02-01T04:25:41;6.40;99.90
21678;DHT22;11000;50.360;7.582;2023-02-01T04:28:02;6.40;99.90
21678;DHT22;11000;50.360;7.582;2023-02-01T04:30:22;6.50;99.90
21678;DHT22;11000;50.360;7.582;2023-02-01T04:32:44;6.40;99.90
21678;DHT22;11000;50.360;7.582;2023-02-01T04:35:05;6.40;99.90
21678;DHT22;11000;50.360;7.582;2023-02-01T04:37:25;6.40;99.90
21678;DHT22;11000;50.360;7.582;2023-02-01T04:39:46;6.50;99.90
21678;DHT22;11000;50.360;7.582;2023-02-01T04:42:06;6.50;99.90
21678;DHT22;11000;50.360;7.582;2023-02-01T04:44:27;6.40;99.90
21678;DHT22;11000;50.360;7.582;2023-02-01T04:46:47;6.50;99.90
21678;DHT22;11000;50.360;7.582;2023-02-01T04:49:09;6.40;99.90
21678;DHT22;11000;50.360;7.582;2023-02-01T04:51:30;6.40;99.90
21678;DHT22;11000;50.360;7.582;2023-02-01T04:53:51;6.40;99.90
21678;DHT22;11000;50.360;7.582;2023-02-01T04:56:11;6.50;99.90
21678;DHT22;11000;50.360;7.582;2023-02-01T04:58:32;6.40;99.90
21678;DHT22;11000;50.360;7.582;2023-02-01T05:00:52;6.40;99.90
21678;DHT22;11000;50.360;7.582;2023-02-01T05:03:13;6.50;99.90
21678;DHT22;11000;50.360;7.582;2023-02-01T05:05:33;6.50;99.90
21678;DHT22;11000;50.360;7.582;2023-02-01T05:07:54;6.50;99.90
21678;DHT22;11000;50.360;7.582;2023-02-01T05:10:15;6.50;99.90
21678;DHT22;11000;50.360;7.582;2023-02-01T05:12:36;6.50;99.90
21678;DHT22;11000;50.360;7.582;2023-02-01T05:15:15;6.50;99.90
21678;DHT22;11000;50.360;7.582;2023-02-01T05:17:36;6.40;99.90
21678;DHT22;11000;50.360;7.582;2023-02-01T05:19:57;6.40;99.90
21678;DHT22;11000;50.360;7.582;2023-02-01T05:22:17;6.40;99.90
21678;DHT22;11000;50.360;7.582;2023-02-01T05:24:38;6.40;99.90
21678;DHT22;11000;50.360;7.582;2023-02-01T05:26:58;6.40;99.90
21678;DHT22;11000;50.360;7.582;2023-02-01T05:29:19;6.40;99.90
21678;DHT22;11000;50.360;7.582;2023-02-01T05:31:39;6.30;99.90
21678;DHT22;11000;50.360;7.582;2023-02-01T05:34:00;6.30;99.90
21678;DHT22;11000;50.360;7.582;2023-02-01T05:36:21;6.30;99.90
21678;DHT22;11000;50.360;7.582;2023-02-01T05:38:41;6.30;99.90
21678;DHT22;11000;50.360;7.582;2023-02-01T05:41:02;6.20;99.90
21678;DHT22;11000;50.360;7.582;2023-02-01T05:43:22;6.20;99.90
21678;DHT22;11000;50.360;7.582;2023-02-01T05:45:43;6.20;99.90
21678;DHT22;11000;50.360;7.582;2023-02-01T05:48:03;6.20;99.90
21678;DHT22;11000;50.360;7.582;2023-02-01T05:50:24;6.20;99.90
21678;DHT22;11000;50.360;7.582;2023-02-01T05:52:45;6.20;99.90
21678;DHT22;11000;50.360;7.582;2023-02-01T05:55:05;6.10;99.90
21678;DHT22;11000;50.360;7.582;2023-02-01T05:57:26;6.10;99.90
21678;DHT22;11000;50.360;7.582;2023-02-01T05:59:46;6.10;99.90
21678;DHT22;11000;50.360;7.582;2023-02-01T06:02:08;6.00;99.90
21678;DHT22;11000;50.360;7.582;2023-02-01T06:04:30;6.00;99.90
21678;DHT22;11000;50.360;7.582;2023-02-01T06:06:50;6.10;99.90
21678;DHT22;11000;50.360;7.582;2023-02-01T06:09:11;6.10;99.90
21678;DHT22;11000;50.360;7.582;2023-02-01T06:11:31;6.10;99.90
21678;DHT22;11000;50.360;7.582;2023-02-01T06:13:52;6.10;99.90
21678;DHT22;11000;50.360;7.582;2023-02-01T06:16:13;6.10;99.90
21678;DHT22;11000;50.360;7.582;2023-02-01T06:18:36;6.10;99.90
21678;DHT22;11000;50.360;7.582;2023-02-01T06:20:57;6.10;99.90
21678;DHT22;11000;50.360;7.582;2023-02-01T06:23:20;6.10;99.90
21678;DHT22;11000;50.360;7.582;2023-02-01T06:25:43;6.20;99.90
21678;DHT22;11000;50.360;7.582;2023-02-01T06:28:05;6.30;99.90
21678;DHT22;11000;50.360;7.582;2023-02-01T06:30:26;6.20;99.90
21678;DHT22;11000;50.360;7.582;2023-02-01T06:32:50;6.30;99.90
21678;DHT22;11000;50.360;7.582;2023-02-01T06:35:13;6.30;99.90
21678;DHT22;11000;50.360;7.582;2023-02-01T06:37:37;6.30;99.90
21678;DHT22;11000;50.360;7.582;2023-02-01T06:39:58;6.30;99.90
21678;DHT22;11000;50.360;7.582;2023-02-01T06:42:18;6.20;99.90
21678;DHT22;11000;50.360;7.582;2023-02-01T06:44:39;6.20;99.90
21678;DHT22;11000;50.360;7.582;2023-02-01T06:47:00;6.20;99.90
21678;DHT22;11000;50.360;7.582;2023-02-01T06:49:20;6.20;99.90
21678;DHT22;11000;50.360;7.582;2023-02-01T06:51:41;6.20;99.90
21678;DHT22;11000;50.360;7.582;2023-02-01T06:54:01;6.20;99.90
21678;DHT22;11000;50.360;7.582;2023-02-01T06:56:22;6.20;99.90
21678;DHT22;11000;50.360;7.582;2023-02-01T06:58:44;6.20;99.90
21678;DHT22;11000;50.360;7.582;2023-02-01T07:01:06;6.10;99.90
21678;DHT22;11000;50.360;7.582;2023-02-01T07:03:27;6.10;99.90
21678;DHT22;11000;50.360;7.582;2023-02-01T07:05:47;6.10;99.90
21678;DHT22;11000;50.360;7.582;2023-02-01T07:08:08;6.10;99.90
21678;DHT22;11000;50.360;7.582;2023-02-01T07:10:29;6.00;99.90
21678;DHT22;11000;50.360;7.582;2023-02-01T07:12:49;6.10;99.90
21678;DHT22;11000;50.360;7.582;2023-02-01T07:15:10;6.00;99.90
21678;DHT22;11000;50.360;7.582;2023-02-01T07:17:30;6.00;99.90
21678;DHT22;11000;50.360;7.582;2023-02-01T07:19:51;6.00;99.90
21678;DHT22;11000;50.360;7.582;2023-02-01T07:22:11;6.10;99.90
21678;DHT22;11000;50.360;7.582;2023-02-01T07:24:33;6.10;99.90
21678;DHT22;11000;50.360;7.582;2023-02-01T07:26:54;6.10;99.90
21678;DHT22;11000;50.360;7.582;2023-02-01T07:29:14;6.20;99.90
21678;DHT22;11000;50.360;7.582;2023-02-01T07:31:35;6.20;99.90
21678;DHT22;11000;50.360;7.582;2023-02-01T07:33:56;6.20;99.90
21678;DHT22;11000;50.360;7.582;2023-02-01T07:36:18;6.20;99.90
21678;DHT22;11000;50.360;7.582;2023-02-01T07:38:39;6.20;99.90
21678;DHT22;11000;50.360;7.582;2023-02-01T07:41:02;6.20;99.90
21678;DHT22;11000;50.360;7.582;2023-02-01T07:43:23;6.20;99.90
21678;DHT22;11000;50.360;7.582;2023-02-01T07:45:50;6.30;99.90
21678;DHT22;11000;50.360;7.582;2023-02-01T07:48:11;6.30;99.90
21678;DHT22;11000;50.360;7.582;2023-02-01T07:50:32;6.30;99.90
21678;DHT22;11000;50.360;7.582;2023-02-01T07:52:53;6.30;99.90
21678;DHT22;11000;50.360;7.582;2023-02-01T07:55:13;6.30;99.90
21678;DHT22;11000;50.360;7.582;2023-02-01T07:57:34;6.30;99.90
21678;DHT22;11000;50.360;7.582;2023-02-01T07:59:54;6.40;99.90
21678;DHT22;11000;50.360;7.582;2023-02-01T08:02:33;6.40;99.90
21678;DHT22;11000;50.360;7.582;2023-02-01T08:04:54;6.40;99.90
21678;DHT22;11000;50.360;7.582;2023-02-01T08:07:14;6.50;99.90
21678;DHT22;11000;50.360;7.582;2023-02-01T08:09:35;6.50;99.90
21678;DHT22;11000;50.360;7.582;2023-02-01T08:11:56;6.50;99.90
21678;DHT22;11000;50.360;7.582;2023-02-01T08:14:16;6.50;99.90
21678;DHT22;11000;50.360;7.582;2023-02-01T08:16:37;6.50;99.90
21678;DHT22;11000;50.360;7.582;2023-02-01T08:18:59;6.50;99.90
21678;DHT22;11000;50.360;7.582;2023-02-01T08:21:22;6.50;99.90
21678;DHT22;11000;50.360;7.582;2023-02-01T08:23:44;6.50;99.90
21678;DHT22;11000;50.360;7.582;2023-02-01T08:26:13;6.50;99.90
21678;DHT22;11000;50.360;7.582;2023-02-01T08:28:35;6.60;99.90
21678;DHT22;11000;50.360;7.582;2023-02-01T08:30:55;6.50;99.90
21678;DHT22;11000;50.360;7.582;2023-02-01T08:33:16;6.60;99.90
21678;DHT22;11000;50.360;7.582;2023-02-01T08:35:37;6.60;99.90
21678;DHT22;11000;50.360;7.582;2023-02-01T08:37:58;6.60;99.90
21678;DHT22;11000;50.360;7.582;2023-02-01T08:40:19;6.70;99.90
21678;DHT22;11000;50.360;7.582;2023-02-01T08:42:41;6.70;99.90
21678;DHT22;11000;50.360;7.582;2023-02-01T08:45:11;6.70;99.90
21678;DHT22;11000;50.360;7.582;2023-02-01T08:47:31;6.70;99.90
21678;DHT22;11000;50.360;7.582;2023-02-01T08:49:52;6.70;99.90
21678;DHT22;11000;50.360;7.582;2023-02-01T08:52:13;6.70;99.90
21678;DHT22;11000;50.360;7.582;2023-02-01T08:54:34;6.60;99.90
21678;DHT22;11000;50.360;7.582;2023-02-01T08:56:55;6.70;99.90
21678;DHT22;11000;50.360;7.582;2023-02-01T08:59:16;6.70;99.90
21678;DHT22;11000;50.360;7.582;2023-02-01T09:01:37;6.70;99.90
21678;DHT22;11000;50.360;7.582;2023-02-01T09:03:58;6.70;99.90
21678;DHT22;11000;50.360;7.582;2023-02-01T09:06:18;6.70;99.90
21678;DHT22;11000;50.360;7.582;2023-02-01T09:08:39;6.70;99.90
21678;DHT22;11000;50.360;7.582;2023-02-01T09:11:01;6.80;99.90
21678;DHT22;11000;50.360;7.582;2023-02-01T09:13:22;6.80;99.90
21678;DHT22;11000;50.360;7.582;2023-02-01T09:15:43;6.80;99.90
21678;DHT22;11000;50.360;7.582;2023-02-01T09:18:04;6.70;99.90
21678;DHT22;11000;50.360;7.582;2023-02-01T09:20:25;6.80;99.90
21678;DHT22;11000;50.360;7.582;2023-02-01T09:22:46;6.80;99.90
21678;DHT22;11000;50.360;7.582;2023-02-01T09:25:07;6.80;99.90
21678;DHT22;11000;50.360;7.582;2023-02-01T09:27:28;6.80;99.90
21678;DHT22;11000;50.360;7.582;2023-02-01T09:29:48;6.80;99.90
21678;DHT22;11000;50.360;7.582;2023-02-01T09:32:12;6.90;99.90
21678;DHT22;11000;50.360;7.582;2023-02-01T09:34:33;6.90;99.90
21678;DHT22;11000;50.360;7.582;2023-02-01T09:36:53;6.90;99.90
21678;DHT22;11000;50.360;7.582;2023-02-01T09:39:14;6.90;99.90
21678;DHT22;11000;50.360;7.582;2023-02-01T09:41:48;6.90;99.90
21678;DHT22;11000;50.360;7.582;2023-02-01T09:44:37;6.90;99.90
21678;DHT22;11000;50.360;7.582;2023-02-01T09:47:01;6.90;99.90
21678;DHT22;11000;50.360;7.582;2023-02-01T09:49:30;6.90;99.90
21678;DHT22;11000;50.360;7.582;2023-02-01T09:51:52;6.90;99.90
21678;DHT22;11000;50.360;7.582;2023-02-01T09:57:36;7.00;99.90
21678;DHT22;11000;50.360;7.582;2023-02-01T10:00:04;7.00;99.90
21678;DHT22;11000;50.360;7.582;2023-02-01T10:02:28;6.90;99.90
21678;DHT22;11000;50.360;7.582;2023-02-01T10:04:54;7.00;99.90
21678;DHT22;11000;50.360;7.582;2023-02-01T10:09:50;7.10;99.90
21678;DHT22;11000;50.360;7.582;2023-02-01T10:20:36;7.20;99.90
21678;DHT22;11000;50.360;7.582;2023-02-01T10:25:37;7.30;99.90
21678;DHT22;11000;50.360;7.582;2023-02-01T10:28:03;7.40;99.90
21678;DHT22;11000;50.360;7.582;2023-02-01T10:30:31;7.40;99.90
21678;DHT22;11000;50.360;7.582;2023-02-01T10:35:36;7.50;99.90
21678;DHT22;11000;50.360;7.582;2023-02-01T10:38:00;7.50;99.90
21678;DHT22;11000;50.360;7.582;2023-02-01T10:40:24;7.50;99.90
21678;DHT22;11000;50.360;7.582;2023-02-01T10:42:45;7.60;99.90
21678;DHT22;11000;50.360;7.582;2023-02-01T10:45:11;7.60;99.90
21678;DHT22;11000;50.360;7.582;2023-02-01T10:47:32;7.70;99.90
21678;DHT22;11000;50.360;7.582;2023-02-01T10:52:54;7.70;99.90
21678;DHT22;11000;50.360;7.582;2023-02-01T10:55:34;7.70;99.90
21678;DHT22;11000;50.360;7.582;2023-02-01T10:57:57;7.60;99.90
21678;DHT22;11000;50.360;7.582;2023-02-01T11:00:21;7.50;99.90
21678;DHT22;11000;50.360;7.582;2023-02-01T11:02:42;7.50;99.90
21678;DHT22;11000;50.360;7.582;2023-02-01T11:05:05;7.50;99.90
21678;DHT22;11000;50.360;7.582;2023-02-01T11:07:26;7.50;99.90
21678;DHT22;11000;50.360;7.582;2023-02-01T11:09:52;7.50;99.90
21678;DHT22;11000;50.360;7.582;2023-02-01T11:12:36;7.50;99.90
21678;DHT22;11000;50.360;7.582;2023-02-01T11:15:22;7.40;99.90
21678;DHT22;11000;50.360;7.582;2023-02-01T11:17:45;7.50;99.90
21678;DHT22;11000;50.360;7.582;2023-02-01T11:20:14;7.50;99.90
21678;DHT22;11000;50.360;7.582;2023-02-01T11:22:36;7.60;99.90
21678;DHT22;11000;50.360;7.582;2023-02-01T11:24:58;7.70;99.90
21678;DHT22;11000;50.360;7.582;2023-02-01T11:27:22;7.70;99.90
21678;DHT22;11000;50.360;7.582;2023-02-01T11:29:46;7.70;99.90
21678;DHT22;11000;50.360;7.582;2023-02-01T11:32:09;7.70;99.90
21678;DHT22;11000;50.360;7.582;2023-02-01T11:34:46;7.70;99.90
21678;DHT22;11000;50.360;7.582;2023-02-01T11:37:20;7.80;99.90
21678;DHT22;11000;50.360;7.582;2023-02-01T11:39:41;7.80;99.90
21678;DHT22;11000;50.360;7.582;2023-02-01T11:42:17;7.80;99.90
21678;DHT22;11000;50.360;7.582;2023-02-01T11:44:40;7.90;99.90
21678;DHT22;11000;50.360;7.582;2023-02-01T11:47:24;8.00;99.90
21678;DHT22;11000;50.360;7.582;2023-02-01T11:49:45;8.00;99.90
21678;DHT22;11000;50.360;7.582;2023-02-01T11:57:56;8.20;99.90
21678;DHT22;11000;50.360;7.582;2023-02-01T12:03:12;8.10;99.90
21678;DHT22;11000;50.360;7.582;2023-02-01T12:08:11;7.90;99.90
21678;DHT22;11000;50.360;7.582;2023-02-01T12:10:55;7.90;99.90
21678;DHT22;11000;50.360;7.582;2023-02-01T12:15:55;7.90;99.90
21678;DHT22;11000;50.360;7.582;2023-02-01T12:18:43;8.00;99.90
21678;DHT22;11000;50.360;7.582;2023-02-01T12:21:32;7.90;99.90
21678;DHT22;11000;50.360;7.582;2023-02-01T12:38:46;7.90;99.90
21678;DHT22;11000;50.360;7.582;2023-02-01T12:41:35;7.90;99.90
21678;DHT22;11000;50.360;7.582;2023-02-01T12:44:12;8.00;99.90
21678;DHT22;11000;50.360;7.582;2023-02-01T12:51:58;8.00;99.90
21678;DHT22;11000;50.360;7.582;2023-02-01T12:54:41;8.00;99.90
21678;DHT22;11000;50.360;7.582;2023-02-01T12:57:28;7.90;99.90
21678;DHT22;11000;50.360;7.582;2023-02-01T13:00:06;7.90;99.90
21678;DHT22;11000;50.360;7.582;2023-02-01T13:05:13;8.00;99.90
21678;DHT22;11000;50.360;7.582;2023-02-01T13:08:00;8.00;99.90
21678;DHT22;11000;50.360;7.582;2023-02-01T13:10:42;8.10;99.90
21678;DHT22;11000;50.360;7.582;2023-02-01T13:13:14;8.10;99.90
21678;DHT22;11000;50.360;7.582;2023-02-01T13:15:42;8.20;99.90
21678;DHT22;11000;50.360;7.582;2023-02-01T13:18:05;8.20;99.90
21678;DHT22;11000;50.360;7.582;2023-02-01T13:20:46;8.20;99.90
21678;DHT22;11000;50.360;7.582;2023-02-01T13:23:21;8.20;99.90
21678;DHT22;11000;50.360;7.582;2023-02-01T13:25:47;8.20;99.90
21678;DHT22;11000;50.360;7.582;2023-02-01T13:28:18;8.20;99.90
21678;DHT22;11000;50.360;7.582;2023-02-01T13:33:47;8.20;99.90
21678;DHT22;11000;50.360;7.582;2023-02-01T13:41:58;8.20;99.90
21678;DHT22;11000;50.360;7.582;2023-02-01T13:44:43;8.30;99.90
21678;DHT22;11000;50.360;7.582;2023-02-01T13:47:24;8.30;99.90
21678;DHT22;11000;50.360;7.582;2023-02-01T13:49:45;8.30;99.90
21678;DHT22;11000;50.360;7.582;2023-02-01T13:52:05;8.30;99.90
21678;DHT22;11000;50.360;7.582;2023-02-01T13:54:33;8.30;99.90
21678;DHT22;11000;50.360;7.582;2023-02-01T13:56:54;8.30;99.90
21678;DHT22;11000;50.360;7.582;2023-02-01T13:59:55;8.30;99.90
21678;DHT22;11000;50.360;7.582;2023-02-01T14:05:01;8.40;99.90
21678;DHT22;11000;50.360;7.582;2023-02-01T14:07:22;8.40;99.90
21678;DHT22;11000;50.360;7.582;2023-02-01T14:09:43;8.40;99.90
21678;DHT22;11000;50.360;7.582;2023-02-01T14:12:46;8.40;99.90
21678;DHT22;11000;50.360;7.582;2023-02-01T14:15:26;8.40;99.90
21678;DHT22;11000;50.360;7.582;2023-02-01T14:17:46;8.40;99.90
21678;DHT22;11000;50.360;7.582;2023-02-01T14:20:45;8.40;99.90
21678;DHT22;11000;50.360;7.582;2023-02-01T14:23:16;8.40;99.90
21678;DHT22;11000;50.360;7.582;2023-02-01T14:25:37;8.40;99.90
21678;DHT22;11000;50.360;7.582;2023-02-01T14:27:58;8.40;99.90
21678;DHT22;11000;50.360;7.582;2023-02-01T14:30:19;8.40;99.90
21678;DHT22;11000;50.360;7.582;2023-02-01T14:32:41;8.40;99.90
21678;DHT22;11000;50.360;7.582;2023-02-01T14:35:06;8.40;99.90
21678;DHT22;11000;50.360;7.582;2023-02-01T14:37:33;8.40;99.90
21678;DHT22;11000;50.360;7.582;2023-02-01T14:58:16;8.50;99.90
21678;DHT22;11000;50.360;7.582;2023-02-01T15:00:52;8.50;99.90
21678;DHT22;11000;50.360;7.582;2023-02-01T15:05:57;8.60;99.90
21678;DHT22;11000;50.360;7.582;2023-02-01T15:08:21;8.60;99.90
21678;DHT22;11000;50.360;7.582;2023-02-01T15:10:46;8.60;99.90
21678;DHT22;11000;50.360;7.582;2023-02-01T15:13:22;8.60;99.90
21678;DHT22;11000;50.360;7.582;2023-02-01T15:15:43;8.60;99.90
21678;DHT22;11000;50.360;7.582;2023-02-01T15:18:03;8.60;99.90
21678;DHT22;11000;50.360;7.582;2023-02-01T15:20:27;8.60;99.90
21678;DHT22;11000;50.360;7.582;2023-02-01T15:22:59;8.60;99.90
21678;DHT22;11000;50.360;7.582;2023-02-01T15:25:23;8.70;99.90
21678;DHT22;11000;50.360;7.582;2023-02-01T15:27:43;8.60;99.90
21678;DHT22;11000;50.360;7.582;2023-02-01T15:30:08;8.60;99.90
21678;DHT22;11000;50.360;7.582;2023-02-01T15:32:34;8.60;99.90
21678;DHT22;11000;50.360;7.582;2023-02-01T15:34:57;8.60;99.90
21678;DHT22;11000;50.360;7.582;2023-02-01T15:37:20;8.70;99.90
21678;DHT22;11000;50.360;7.582;2023-02-01T15:42:30;8.70;99.90
21678;DHT22;11000;50.360;7.582;2023-02-01T15:44:51;8.70;99.90
21678;DHT22;11000;50.360;7.582;2023-02-01T15:47:16;8.70;99.90
21678;DHT22;11000;50.360;7.582;2023-02-01T15:49:39;8.60;99.90
21678;DHT22;11000;50.360;7.582;2023-02-01T15:52:01;8.60;99.90
21678;DHT22;11000;50.360;7.582;2023-02-01T15:54:26;8.60;99.90
21678;DHT22;11000;50.360;7.582;2023-02-01T15:56:51;8.60;99.90
21678;DHT22;11000;50.360;7.582;2023-02-01T15:59:16;8.60;99.90
21678;DHT22;11000;50.360;7.582;2023-02-01T16:01:37;8.60;99.90
21678;DHT22;11000;50.360;7.582;2023-02-01T16:04:18;8.60;99.90
21678;DHT22;11000;50.360;7.582;2023-02-01T16:06:46;8.50;99.90
21678;DHT22;11000;50.360;7.582;2023-02-01T16:09:13;8.60;99.90
21678;DHT22;11000;50.360;7.582;2023-02-01T16:12:02;8.60;99.90
21678;DHT22;11000;50.360;7.582;2023-02-01T16:14:21;8.60;99.90
21678;DHT22;11000;50.360;7.582;2023-02-01T16:16:42;8.60;99.90
21678;DHT22;11000;50.360;7.582;2023-02-01T16:19:03;8.60;99.90
21678;DHT22;11000;50.360;7.582;2023-02-01T16:21:23;8.60;99.90
21678;DHT22;11000;50.360;7.582;2023-02-01T16:23:48;8.60;99.90
21678;DHT22;11000;50.360;7.582;2023-02-01T16:26:09;8.60;99.90
21678;DHT22;11000;50.360;7.582;2023-02-01T16:28:31;8.60;99.90
21678;DHT22;11000;50.360;7.582;2023-02-01T16:30:51;8.60;99.90
21678;DHT22;11000;50.360;7.582;2023-02-01T16:33:17;8.60;99.90
21678;DHT22;11000;50.360;7.582;2023-02-01T16:35:39;8.50;99.90
21678;DHT22;11000;50.360;7.582;2023-02-01T16:38:00;8.50;99.90
21678;DHT22;11000;50.360;7.582;2023-02-01T16:40:21;8.50;99.90
21678;DHT22;11000;50.360;7.582;2023-02-01T16:42:42;8.50;99.90
21678;DHT22;11000;50.360;7.582;2023-02-01T16:45:03;8.40;99.90
21678;DHT22;11000;50.360;7.582;2023-02-01T16:47:24;8.40;99.90
21678;DHT22;11000;50.360;7.582;2023-02-01T16:49:45;8.40;99.90
21678;DHT22;11000;50.360;7.582;2023-02-01T16:52:16;8.30;99.90
21678;DHT22;11000;50.360;7.582;2023-02-01T16:54:37;8.30;99.90
21678;DHT22;11000;50.360;7.582;2023-02-01T16:56:58;8.20;99.90
21678;DHT22;11000;50.360;7.582;2023-02-01T16:59:19;8.20;99.90
21678;DHT22;11000;50.360;7.582;2023-02-01T17:01:40;8.10;99.90
21678;DHT22;11000;50.360;7.582;2023-02-01T17:04:02;8.10;99.90
21678;DHT22;11000;50.360;7.582;2023-02-01T17:06:25;8.00;99.90
21678;DHT22;11000;50.360;7.582;2023-02-01T17:08:53;8.00;99.90
21678;DHT22;11000;50.360;7.582;2023-02-01T17:11:14;8.00;99.90
21678;DHT22;11000;50.360;7.582;2023-02-01T17:13:34;7.90;99.90
21678;DHT22;11000;50.360;7.582;2023-02-01T17:16:27;7.90;99.90
21678;DHT22;11000;50.360;7.582;2023-02-01T17:18:54;7.80;99.90
21678;DHT22;11000;50.360;7.582;2023-02-01T17:21:16;7.80;99.90
21678;DHT22;11000;50.360;7.582;2023-02-01T17:23:36;7.80;99.90